Página principal
METAR-TAF:

METAR-TAF

Aeroportos :

Aeroporto Internacional Chinggis Khaan

Ulaanbaatar, Mongólia

latitude: 47-55N, longitude: 106-52E, altura: 1306 m

Observação actual do tempo

O boletim foi feito há 20 minutos, às 15:30 UTC
Vento calmo
Temperatura 0°C
Humidade 80%
Pressão 1021 hPa
Visibilidade 10 km ou mais
sem nuvens abaixo de 1500 metros e sem cumulonimbus

METAR: ZMUB 231530Z 00000MPS CAVOK M00/M03 Q1021 NOSIG RMK QFE657.7 83

Hora: 00:50 (15:50 UTC)

Previsão

O boletim foi feito há 4 horas e 59 minutos, às 10:51 UTC
Previsão válida de 23 às 12 UTC a 24 às 18 UTC
Vento 10 kt de su-sudeste
Visibilidade 10 km ou mais
Nuvens dispersasa uma altura de 10000 ft
Tornando-se
de 24 às 08 UTC a 24 às 10 UTC
Vento 4 kt com direcção variável

TAF: ZMUB 231051Z 2312/2418 16005MPS 9999 SCT100 TNM04/2321Z TX16/2407Z BECMG 2408/2410 VRB02MPS

Observações e previsões do tempo de mais de 4000 aeroportos (mensagens METAR e TAF).

As estações disponíveis são os pontos amarelos e vermelhos sobre o mapa.

Mova o rato sobre o mapa para ver o nome da estação.

Depois clique no ponto para visualizar as observações e previsões meteorológicas.

Para alterar o mapa : clique nos botões verdes com uma cruz preta para aumentar o zoom; no botão verde com uma pitada de zoom; ou nas setas verdes para mapas adjacentes.


METAR-TAF: